createdAt,value
2019-04-03T00:00:13.697Z,13.17
2019-04-03T00:02:45.504Z,13.30
2019-04-03T00:05:17.184Z,12.03
2019-04-03T00:07:49.382Z,14.07
2019-04-03T00:10:33.334Z,12.30
2019-04-03T00:13:03.863Z,13.80
2019-04-03T00:15:41.201Z,12.70
2019-04-03T00:18:16.593Z,12.23
2019-04-03T00:20:51.776Z,13.97
2019-04-03T00:23:24.609Z,12.83
2019-04-03T00:25:59.789Z,12.87
2019-04-03T00:28:31.023Z,13.00
2019-04-03T00:31:22.949Z,13.27
2019-04-03T00:34:12.062Z,13.27
2019-04-03T00:36:58.200Z,13.40
2019-04-03T00:39:31.091Z,13.60
2019-04-03T00:42:03.524Z,12.90
2019-04-03T00:44:37.093Z,12.70
2019-04-03T00:47:07.771Z,13.13
2019-04-03T00:49:42.307Z,13.67
2019-04-03T00:52:15.851Z,12.87
2019-04-03T00:54:48.877Z,11.83
2019-04-03T00:57:22.978Z,12.30
2019-04-03T00:59:56.034Z,12.93
2019-04-03T01:02:29.035Z,13.93
2019-04-03T01:05:18.086Z,12.37
2019-04-03T01:08:07.388Z,12.10
2019-04-03T01:10:56.420Z,12.57
2019-04-03T01:13:33.425Z,12.30
2019-04-03T01:16:06.640Z,12.47
2019-04-03T01:18:44.471Z,12.80
2019-04-03T01:21:16.766Z,12.77
2019-04-03T01:23:50.808Z,13.50
2019-04-03T01:26:24.166Z,13.40
2019-04-03T01:28:56.874Z,13.47
2019-04-03T01:31:39.310Z,13.07
2019-04-03T01:34:11.097Z,11.47
2019-04-03T01:36:44.744Z,12.43
2019-04-03T01:39:17.003Z,13.90
2019-04-03T01:41:51.082Z,12.67
2019-04-03T01:44:24.695Z,12.73
2019-04-03T01:46:59.534Z,12.70
2019-04-03T01:49:30.008Z,11.70
2019-04-03T01:52:02.054Z,12.53
2019-04-03T01:54:35.573Z,13.30
2019-04-03T01:57:06.991Z,13.90
2019-04-03T01:59:40.472Z,12.93
2019-04-03T02:02:12.998Z,15.87
2019-04-03T02:05:02.412Z,21.10
2019-04-03T02:07:33.453Z,30.90
2019-04-03T02:10:12.549Z,35.43
2019-04-03T02:12:46.370Z,44.20
2019-04-03T02:15:37.258Z,49.30
2019-04-03T02:18:09.247Z,45.97
2019-04-03T02:20:43.336Z,43.80
2019-04-03T02:23:16.504Z,35.33
2019-04-03T02:25:49.341Z,31.77
2019-04-03T02:28:20.414Z,27.07
2019-04-03T02:30:51.379Z,21.90
2019-04-03T02:33:28.174Z,19.43
2019-04-03T02:35:58.977Z,17.47
2019-04-03T02:38:32.458Z,18.03
2019-04-03T02:41:05.073Z,16.33
2019-04-03T02:43:45.435Z,13.00
2019-04-03T02:46:17.033Z,14.30
2019-04-03T02:48:48.284Z,12.20
2019-04-03T02:51:21.796Z,13.77
2019-04-03T02:53:56.491Z,12.60
2019-04-03T02:56:27.637Z,12.80
2019-04-03T02:59:00.679Z,12.70
2019-04-03T03:01:31.700Z,12.80
2019-04-03T03:04:04.632Z,12.47
2019-04-03T03:06:54.265Z,12.47
2019-04-03T03:09:34.529Z,12.87
2019-04-03T03:12:09.262Z,12.27
2019-04-03T03:14:43.798Z,14.00
2019-04-03T03:17:15.837Z,13.47
2019-04-03T03:19:50.878Z,14.20
2019-04-03T03:22:22.883Z,13.40
2019-04-03T03:24:55.689Z,12.60
2019-04-03T03:27:28.789Z,14.60
2019-04-03T03:30:02.265Z,14.03
2019-04-03T03:32:41.309Z,13.50
2019-04-03T03:35:16.712Z,13.80
2019-04-03T03:38:04.645Z,13.67
2019-04-03T03:40:53.552Z,13.53
2019-04-03T03:43:37.075Z,14.90
2019-04-03T03:46:07.247Z,13.37
2019-04-03T03:48:45.525Z,12.80
2019-04-03T03:51:18.669Z,13.33
2019-04-03T03:54:08.504Z,13.77
2019-04-03T03:56:43.058Z,13.50
2019-04-03T03:59:16.382Z,15.07
2019-04-03T04:01:49.668Z,14.47
2019-04-03T04:04:21.474Z,14.10
2019-04-03T04:06:55.593Z,14.57
2019-04-03T04:09:33.492Z,13.97
2019-04-03T04:12:08.709Z,13.60
2019-04-03T04:14:43.158Z,14.03
2019-04-03T04:17:17.270Z,13.80
2019-04-03T04:19:47.525Z,13.40
2019-04-03T04:22:19.221Z,14.23
2019-04-03T04:24:53.112Z,14.20
2019-04-03T04:27:42.141Z,13.33
2019-04-03T04:30:25.211Z,14.23
2019-04-03T04:32:57.907Z,15.10
2019-04-03T04:35:33.989Z,14.90
2019-04-03T04:38:07.950Z,15.00
2019-04-03T04:40:41.603Z,14.00
2019-04-03T04:43:13.058Z,14.27
2019-04-03T04:45:45.991Z,14.23
2019-04-03T04:48:20.739Z,15.80
2019-04-03T04:50:54.248Z,15.80
2019-04-03T04:53:29.805Z,16.17
2019-04-03T04:56:18.341Z,15.67
2019-04-03T04:58:49.254Z,16.07
2019-04-03T05:01:20.444Z,16.13
2019-04-03T05:03:54.508Z,14.63
2019-04-03T05:06:29.921Z,14.37
2019-04-03T05:09:07.492Z,15.17
2019-04-03T05:11:42.750Z,16.23
2019-04-03T05:14:13.698Z,14.83
2019-04-03T05:16:47.450Z,15.90
2019-04-03T05:19:19.883Z,15.70
2019-04-03T05:21:53.107Z,15.30
2019-04-03T05:24:26.915Z,14.30
2019-04-03T05:27:03.312Z,15.00
2019-04-03T05:29:39.513Z,23.33
2019-04-03T05:32:11.783Z,28.03
2019-04-03T05:34:55.154Z,21.77
2019-04-03T05:37:30.432Z,16.33
2019-04-03T05:40:01.999Z,15.33
2019-04-03T05:42:42.844Z,14.93
2019-04-03T05:45:16.020Z,14.63
2019-04-03T05:47:51.717Z,28.30
2019-04-03T05:50:26.494Z,22.70
2019-04-03T05:52:59.406Z,16.20
2019-04-03T05:55:33.247Z,15.47
2019-04-03T05:58:11.187Z,15.90
2019-04-03T06:01:05.422Z,14.97
2019-04-03T06:03:42.204Z,14.70
2019-04-03T06:06:23.977Z,14.43
2019-04-03T06:09:06.006Z,15.47
2019-04-03T06:11:40.763Z,15.27
2019-04-03T06:14:13.472Z,15.37
2019-04-03T06:16:47.241Z,15.63
2019-04-03T06:19:40.539Z,16.63
2019-04-03T06:22:16.458Z,16.70
2019-04-03T06:24:51.247Z,14.10
2019-04-03T06:27:23.244Z,15.03
2019-04-03T06:29:56.543Z,15.50
2019-04-03T06:32:45.173Z,15.33
2019-04-03T06:35:29.489Z,15.40
2019-04-03T06:38:01.629Z,15.20
2019-04-03T06:40:35.465Z,16.17
2019-04-03T06:43:12.508Z,15.60
2019-04-03T06:45:44.451Z,16.37
2019-04-03T06:48:17.516Z,15.50
2019-04-03T06:51:06.945Z,16.27
2019-04-03T06:53:38.580Z,15.30
2019-04-03T06:56:10.566Z,16.47
2019-04-03T06:58:45.295Z,14.50
2019-04-03T07:01:18.062Z,15.90
2019-04-03T07:03:52.498Z,15.87
2019-04-03T07:06:27.649Z,16.07
2019-04-03T07:09:24.041Z,16.13
2019-04-03T07:11:49.557Z,15.70
2019-04-03T07:14:25.650Z,15.43
2019-04-03T07:17:00.702Z,17.07
2019-04-03T07:19:33.579Z,15.13
2019-04-03T07:22:06.727Z,15.17
2019-04-03T07:24:42.725Z,15.57
2019-04-03T07:27:16.544Z,15.00
2019-04-03T07:30:08.350Z,15.77
2019-04-03T07:32:42.244Z,16.87
2019-04-03T07:35:15.762Z,15.73
2019-04-03T07:37:51.069Z,15.87
2019-04-03T07:40:23.700Z,16.30
2019-04-03T07:42:56.936Z,14.57
2019-04-03T07:45:29.896Z,15.23
2019-04-03T07:48:01.554Z,14.60
2019-04-03T07:50:36.398Z,17.00
2019-04-03T07:53:10.990Z,18.40
2019-04-03T07:56:00.259Z,16.60
2019-04-03T07:58:32.682Z,15.20
2019-04-03T08:01:04.744Z,15.87
2019-04-03T08:03:41.737Z,15.93
2019-04-03T08:06:15.109Z,15.80
2019-04-03T08:08:45.941Z,15.37
2019-04-03T08:11:17.060Z,15.47
2019-04-03T08:13:49.056Z,15.27
2019-04-03T08:16:22.119Z,17.90
2019-04-03T08:18:54.076Z,17.83
2019-04-03T08:21:25.736Z,16.57
2019-04-03T08:23:58.290Z,14.93
2019-04-03T08:26:31.457Z,14.93
2019-04-03T08:29:03.826Z,14.37
2019-04-03T08:31:34.538Z,14.67
2019-04-03T08:34:15.505Z,14.60
2019-04-03T08:36:42.708Z,16.73
2019-04-03T08:39:16.053Z,16.50
2019-04-03T08:41:50.056Z,15.93
2019-04-03T08:44:26.936Z,15.40
2019-04-03T08:47:01.101Z,16.73
2019-04-03T08:49:50.397Z,14.43
2019-04-03T08:52:34.813Z,15.20
2019-04-03T08:55:12.893Z,16.53
2019-04-03T08:57:46.919Z,15.70
2019-04-03T09:00:19.582Z,15.50
2019-04-03T09:02:52.907Z,14.40
2019-04-03T09:05:32.902Z,14.80
2019-04-03T09:08:04.176Z,16.07
2019-04-03T09:10:36.755Z,15.10
2019-04-03T09:13:16.840Z,16.30
2019-04-03T09:15:43.498Z,17.70
2019-04-03T09:18:16.339Z,15.10
2019-04-03T09:20:51.335Z,15.90
2019-04-03T09:23:27.179Z,15.17
2019-04-03T09:26:03.061Z,15.27
2019-04-03T09:28:41.262Z,15.43
2019-04-03T09:31:14.066Z,14.33
2019-04-03T09:33:47.150Z,15.23
2019-04-03T09:36:20.888Z,14.67
2019-04-03T09:39:13.964Z,14.63
2019-04-03T09:41:50.898Z,16.40
2019-04-03T09:44:34.214Z,14.70
2019-04-03T09:47:08.370Z,15.47
2019-04-03T09:49:46.512Z,14.87
2019-04-03T09:52:23.557Z,14.40
2019-04-03T09:54:58.046Z,15.00
2019-04-03T09:57:32.012Z,14.33
2019-04-03T10:00:11.393Z,15.30
2019-04-03T10:02:43.501Z,14.83
2019-04-03T10:05:22.203Z,15.37
2019-04-03T10:07:54.544Z,15.50
2019-04-03T10:10:26.365Z,14.87
2019-04-03T10:13:15.783Z,15.30
2019-04-03T10:16:04.969Z,14.80
2019-04-03T10:18:41.732Z,14.60
2019-04-03T10:21:13.535Z,15.00
2019-04-03T10:23:46.653Z,15.93
2019-04-03T10:26:20.815Z,15.70
2019-04-03T10:28:54.202Z,16.30
2019-04-03T10:31:26.486Z,14.77
2019-04-03T10:34:00.906Z,14.37
2019-04-03T10:36:34.627Z,14.10
2019-04-03T10:39:09.399Z,13.90
2019-04-03T10:41:43.805Z,15.43
2019-04-03T10:44:16.472Z,14.63
2019-04-03T10:46:52.793Z,14.47
2019-04-03T10:49:25.511Z,13.30
2019-04-03T10:52:00.235Z,12.60
2019-04-03T10:54:33.284Z,14.50
2019-04-03T10:57:05.414Z,14.60
2019-04-03T10:59:41.954Z,14.37
2019-04-03T11:02:19.700Z,14.87
2019-04-03T11:04:52.944Z,13.80
2019-04-03T11:07:25.756Z,14.43
2019-04-03T11:09:59.618Z,13.27
2019-04-03T11:12:33.678Z,13.57
2019-04-03T11:15:10.453Z,14.40
2019-04-03T11:17:43.218Z,14.70
2019-04-03T11:20:28.588Z,15.67
2019-04-03T11:23:06.368Z,13.57
2019-04-03T11:25:53.749Z,14.43
2019-04-03T11:28:43.008Z,13.47
2019-04-03T11:31:36.088Z,14.67
2019-04-03T11:34:07.740Z,13.87
2019-04-03T11:36:46.319Z,15.03
2019-04-03T11:39:17.994Z,12.77
2019-04-03T11:41:51.375Z,17.73
2019-04-03T11:44:27.499Z,17.97
2019-04-03T11:46:59.641Z,13.60
2019-04-03T11:49:33.761Z,14.73
2019-04-03T11:52:07.844Z,14.10
2019-04-03T11:54:41.690Z,13.73
2019-04-03T11:57:16.347Z,13.17
2019-04-03T11:59:47.840Z,13.40
2019-04-03T12:02:20.809Z,13.47
2019-04-03T12:04:54.430Z,12.90
2019-04-03T12:07:27.677Z,14.67
2019-04-03T12:10:02.796Z,21.40
2019-04-03T12:12:34.997Z,16.40
2019-04-03T12:15:09.721Z,14.00
2019-04-03T12:17:41.076Z,14.97
2019-04-03T12:20:15.866Z,13.70
2019-04-03T12:22:47.051Z,13.37
2019-04-03T12:25:21.567Z,13.07
2019-04-03T12:27:53.615Z,13.03
2019-04-03T12:30:28.021Z,13.73
2019-04-03T12:32:59.338Z,13.30
2019-04-03T12:35:32.312Z,13.30
2019-04-03T12:38:04.052Z,13.23
2019-04-03T12:40:34.911Z,13.77
2019-04-03T12:43:08.015Z,12.93
2019-04-03T12:45:42.862Z,13.83
2019-04-03T12:48:21.940Z,13.70
2019-04-03T12:50:59.315Z,13.17
2019-04-03T12:53:29.225Z,14.10
2019-04-03T12:56:01.921Z,13.33
2019-04-03T12:58:34.047Z,14.33
2019-04-03T13:01:13.357Z,12.63
2019-04-03T13:03:46.341Z,13.30
2019-04-03T13:06:21.228Z,14.70
2019-04-03T13:08:52.787Z,13.53
2019-04-03T13:11:26.821Z,13.57
2019-04-03T13:14:02.680Z,13.77
2019-04-03T13:16:33.282Z,14.20
2019-04-03T13:19:04.981Z,13.47
2019-04-03T13:21:41.640Z,16.60
2019-04-03T13:24:16.712Z,22.93
2019-04-03T13:27:05.726Z,16.13
2019-04-03T13:30:04.748Z,13.67
2019-04-03T13:32:59.886Z,14.13
2019-04-03T13:35:28.976Z,13.83
2019-04-03T13:38:03.685Z,14.20
2019-04-03T13:40:34.900Z,13.33
2019-04-03T13:43:09.344Z,13.50
2019-04-03T13:45:50.100Z,13.70
2019-04-03T13:48:22.954Z,13.60
2019-04-03T13:50:56.378Z,11.83
2019-04-03T13:53:34.199Z,12.53
2019-04-03T13:56:10.262Z,12.47
2019-04-03T13:58:43.796Z,14.27
2019-04-03T14:01:32.989Z,13.83
2019-04-03T14:04:10.622Z,13.33
2019-04-03T14:06:47.494Z,12.40
2019-04-03T14:09:31.659Z,13.47
2019-04-03T14:12:10.336Z,12.87
2019-04-03T14:14:46.858Z,11.90
2019-04-03T14:17:19.809Z,13.13
2019-04-03T14:20:10.036Z,12.77
2019-04-03T14:22:43.373Z,13.90
2019-04-03T14:25:22.227Z,12.13
2019-04-03T14:28:14.445Z,12.83
2019-04-03T14:30:47.451Z,13.20
2019-04-03T14:33:19.755Z,11.67
2019-04-03T14:35:55.043Z,12.27
2019-04-03T14:38:34.848Z,12.60
2019-04-03T14:41:07.854Z,12.10
2019-04-03T14:43:41.972Z,11.87
2019-04-03T14:46:31.344Z,12.63
2019-04-03T14:49:03.254Z,13.23
2019-04-03T14:51:34.408Z,16.30
2019-04-03T14:54:08.795Z,20.30
2019-04-03T14:56:42.576Z,13.43
2019-04-03T14:59:14.997Z,12.43
2019-04-03T15:01:50.716Z,12.93
2019-04-03T15:04:19.924Z,12.30
2019-04-03T15:07:02.084Z,12.10
2019-04-03T15:09:28.730Z,11.60
2019-04-03T15:12:08.192Z,11.87
2019-04-03T15:14:44.992Z,11.60
2019-04-03T15:17:19.603Z,12.70
2019-04-03T15:19:55.739Z,12.80
2019-04-03T15:22:26.903Z,11.63
2019-04-03T15:25:10.854Z,12.93
2019-04-03T15:27:43.737Z,12.90
2019-04-03T15:30:18.477Z,11.37
2019-04-03T15:32:52.084Z,11.97
2019-04-03T15:35:25.536Z,12.90
2019-04-03T15:38:00.359Z,13.03
2019-04-03T15:40:32.854Z,12.67
2019-04-03T15:43:17.396Z,11.37
2019-04-03T15:45:49.820Z,12.93
2019-04-03T15:48:24.393Z,12.47
2019-04-03T15:50:58.295Z,13.23
2019-04-03T15:53:32.832Z,12.90
2019-04-03T15:56:06.250Z,20.50
2019-04-03T15:58:37.461Z,21.60
2019-04-03T16:01:23.157Z,12.97
2019-04-03T16:03:59.083Z,12.10
2019-04-03T16:06:30.599Z,10.17
2019-04-03T16:09:03.793Z,10.07
2019-04-03T16:11:34.661Z,10.00
2019-04-03T16:14:23.894Z,9.67
2019-04-03T16:17:01.745Z,10.43
2019-04-03T16:19:34.377Z,11.60
2019-04-03T16:22:05.326Z,11.30
2019-04-03T16:24:43.872Z,11.30
2019-04-03T16:27:33.998Z,10.77
2019-04-03T16:30:08.791Z,11.00
2019-04-03T16:32:44.014Z,11.33
2019-04-03T16:35:22.093Z,10.57
2019-04-03T16:37:56.669Z,10.70
2019-04-03T16:40:28.236Z,10.30
2019-04-03T16:43:01.508Z,10.43
2019-04-03T16:45:37.216Z,9.83
2019-04-03T16:48:19.011Z,12.70
2019-04-03T16:50:52.293Z,17.53
2019-04-03T16:53:23.003Z,23.93
2019-04-03T16:55:55.506Z,11.10
2019-04-03T16:58:30.287Z,10.83
2019-04-03T17:01:01.996Z,10.90
2019-04-03T17:03:35.311Z,10.30
2019-04-03T17:06:25.037Z,9.57
2019-04-03T17:09:10.373Z,9.60
2019-04-03T17:11:46.829Z,17.27
2019-04-03T17:14:17.143Z,20.60
2019-04-03T17:16:54.002Z,10.37
2019-04-03T17:19:32.149Z,11.10
2019-04-03T17:22:05.823Z,8.80
2019-04-03T17:24:46.395Z,8.87
2019-04-03T17:27:14.258Z,7.73
2019-04-03T17:29:47.364Z,7.47
2019-04-03T17:32:20.923Z,7.27
2019-04-03T17:34:52.408Z,8.50
2019-04-03T17:37:30.266Z,7.20
2019-04-03T17:40:01.391Z,7.30
2019-04-03T17:42:32.449Z,7.20
2019-04-03T17:45:05.419Z,7.27
2019-04-03T17:47:40.176Z,8.23
2019-04-03T17:50:14.393Z,8.00
2019-04-03T17:52:48.716Z,10.40
2019-04-03T17:55:45.468Z,9.77
2019-04-03T17:58:19.429Z,8.70
2019-04-03T18:00:53.025Z,8.30
2019-04-03T18:03:27.958Z,8.83
2019-04-03T18:05:59.018Z,7.00
2019-04-03T18:08:37.419Z,6.93
2019-04-03T18:11:13.323Z,6.20
2019-04-03T18:13:44.929Z,6.80
2019-04-03T18:16:34.634Z,6.67
2019-04-03T18:19:08.933Z,7.37
2019-04-03T18:21:42.232Z,7.17
2019-04-03T18:24:15.170Z,7.90
2019-04-03T18:27:06.381Z,8.53
2019-04-03T18:29:44.812Z,8.27
2019-04-03T18:32:16.000Z,6.80
2019-04-03T18:34:51.291Z,7.00
2019-04-03T18:37:25.598Z,6.90
2019-04-03T18:39:58.735Z,7.70
2019-04-03T18:42:29.849Z,7.70
2019-04-03T18:45:00.749Z,7.70
2019-04-03T18:47:41.303Z,7.13
2019-04-03T18:50:10.194Z,7.67
2019-04-03T18:52:59.507Z,8.47
2019-04-03T18:55:34.735Z,8.00
2019-04-03T18:58:07.834Z,8.00
2019-04-03T19:00:44.824Z,7.17
2019-04-03T19:03:36.194Z,7.17
2019-04-03T19:06:20.216Z,7.70
2019-04-03T19:08:50.791Z,7.63
2019-04-03T19:11:24.456Z,6.60
2019-04-03T19:13:59.611Z,7.30
2019-04-03T19:16:43.579Z,7.67
2019-04-03T19:19:08.108Z,7.17
2019-04-03T19:21:41.664Z,7.10
2019-04-03T19:24:14.964Z,8.47
2019-04-03T19:26:46.928Z,6.07
2019-04-03T19:29:20.993Z,7.37
2019-04-03T19:31:53.166Z,7.70
2019-04-03T19:34:27.824Z,7.60
2019-04-03T19:37:03.544Z,7.73
2019-04-03T19:39:37.565Z,7.77
2019-04-03T19:42:10.065Z,6.30
2019-04-03T19:44:51.597Z,7.10
2019-04-03T19:47:25.160Z,7.07
2019-04-03T19:49:59.895Z,6.50
2019-04-03T19:52:31.117Z,7.40
2019-04-03T19:55:08.156Z,6.80
2019-04-03T19:57:41.709Z,7.40
2019-04-03T20:00:30.764Z,6.73
2019-04-03T20:03:03.285Z,7.97
2019-04-03T20:05:33.975Z,7.00
2019-04-03T20:08:05.107Z,7.13
2019-04-03T20:10:36.060Z,7.40
2019-04-03T20:13:10.441Z,7.40
2019-04-03T20:15:45.997Z,6.20
2019-04-03T20:18:18.282Z,6.90
2019-04-03T20:20:50.009Z,7.00
2019-04-03T20:23:23.143Z,6.60
2019-04-03T20:25:54.576Z,6.50
2019-04-03T20:28:33.180Z,6.93
2019-04-03T20:31:07.590Z,6.10
2019-04-03T20:33:42.937Z,5.80
2019-04-03T20:36:16.632Z,19.40
2019-04-03T20:38:48.043Z,17.27
2019-04-03T20:41:20.328Z,16.57
2019-04-03T20:43:57.094Z,8.90
2019-04-03T20:46:30.294Z,6.67
2019-04-03T20:49:04.020Z,6.20
2019-04-03T20:51:35.147Z,6.87
2019-04-03T20:54:08.075Z,6.73
2019-04-03T20:56:57.991Z,5.87
2019-04-03T20:59:30.232Z,7.20
2019-04-03T21:02:01.284Z,6.50
2019-04-03T21:04:41.952Z,5.80
2019-04-03T21:07:17.024Z,6.53
2019-04-03T21:09:51.218Z,6.40
2019-04-03T21:12:24.371Z,6.50
2019-04-03T21:15:08.382Z,6.40
2019-04-03T21:17:45.214Z,6.57
2019-04-03T21:20:23.770Z,6.50
2019-04-03T21:22:55.286Z,6.97
2019-04-03T21:25:28.463Z,5.90
2019-04-03T21:28:01.049Z,5.60
2019-04-03T21:30:33.359Z,6.37
2019-04-03T21:33:07.648Z,5.93
2019-04-03T21:35:50.248Z,14.93
2019-04-03T21:38:22.602Z,20.63
2019-04-03T21:40:55.759Z,13.57
2019-04-03T21:43:29.178Z,7.30
2019-04-03T21:46:01.726Z,10.20
2019-04-03T21:48:44.787Z,11.73
2019-04-03T21:51:16.532Z,12.30
2019-04-03T21:53:51.785Z,11.90
2019-04-03T21:56:23.576Z,12.53
2019-04-03T21:58:56.897Z,8.80
2019-04-03T22:01:30.255Z,10.50
2019-04-03T22:04:04.041Z,10.60
2019-04-03T22:06:34.591Z,30.10
2019-04-03T22:09:10.136Z,23.90
2019-04-03T22:11:59.497Z,16.87
2019-04-03T22:14:48.914Z,13.87
2019-04-03T22:17:35.157Z,10.40
2019-04-03T22:20:06.168Z,13.43
2019-04-03T22:22:42.777Z,11.33
2019-04-03T22:25:17.334Z,9.63
2019-04-03T22:27:51.785Z,8.73
2019-04-03T22:30:23.234Z,7.70
2019-04-03T22:33:08.675Z,8.97
2019-04-03T22:35:44.904Z,8.40
2019-04-03T22:38:37.170Z,7.43
2019-04-03T22:41:26.575Z,6.90
2019-04-03T22:44:02.347Z,8.30
2019-04-03T22:46:33.784Z,7.90
2019-04-03T22:49:07.177Z,7.00
2019-04-03T22:51:56.636Z,7.87
2019-04-03T22:54:29.866Z,8.23
2019-04-03T22:57:03.024Z,8.30
2019-04-03T22:59:54.469Z,8.90
2019-04-03T23:02:32.265Z,11.33
2019-04-03T23:05:07.760Z,12.93
2019-04-03T23:07:41.552Z,11.30
2019-04-03T23:10:30.481Z,16.50
2019-04-03T23:13:05.236Z,12.03
2019-04-03T23:15:35.147Z,18.57
2019-04-03T23:18:09.536Z,21.07
2019-04-03T23:20:43.963Z,15.10
2019-04-03T23:23:16.782Z,19.93
2019-04-03T23:25:50.420Z,15.03
2019-04-03T23:28:23.051Z,17.50
2019-04-03T23:30:57.951Z,18.23
2019-04-03T23:33:30.463Z,16.10
2019-04-03T23:36:02.747Z,16.47
2019-04-03T23:38:34.897Z,23.63
2019-04-03T23:41:07.107Z,22.50
2019-04-03T23:43:43.203Z,15.80
2019-04-03T23:46:14.730Z,12.70
2019-04-03T23:48:48.970Z,16.90
2019-04-03T23:51:27.964Z,13.57
2019-04-03T23:54:02.609Z,23.57
2019-04-03T23:56:37.009Z,27.50
2019-04-03T23:59:09.196Z,33.20
